Pagina principale
METAR-TAF:

METAR-TAF

Aeroporti :

Aeroporto Internazionale di Lusaka

Lusaka, Zambia

latitudine: 15-19-51S, longitudine: 028-27-09E, altezza: 1152 m

Osservazione

Il bollettino è stato emesso 2 ore e 30 minuti fa, alle 14:00 UTC
Vento 11 kt da est
Temperature 24°C
Umidità 22%
Pressione 1023 hPa
Visibilità 10 km o più
nessuna nube inferiore a 1500 m e nessun cumulonembo

METAR: FLKK 241400Z 09011KT CAVOK 24/01 Q1023

Ora: 18:30 (16:30 UTC)

Previsione

Il bollettino è stato emesso 12 ore e 30 minuti fa, alle 04:00 UTC
Previsione valida dal 24 alle 06 UTC al 25 alle 12 UTC
Vento 10 kt da est
Visibilità: 9000 m
Evoluzione graduale
dal 24 alle 07 UTC al 24 alle 11 UTC
Vento 10 kt da est
Visibilità: 9000 m
Nubi sparse ad un'altezza di 3000 ft
A partire da 24 alle 1400 UTC
Vento 5 kt da est
Visibilità 10 km o più
nessuna nube inferiore a 1500 m e nessun cumulonembo

TAF: FLKK 240400Z 2406/2512 09010KT 9000 NSC BECMG 2407/2411 08010KT 9000 SCT030 FM241400 09005KT CAVOK

Osservazioni e previsioni meteorologiche di più di 4000 aeroporti (messaggi METAR e TAF).

Le stazioni disponibili sono rappresentate dai dischi gialli e rossi sulla carta.

Puntare il mouse per vedere il nome della stazione.

Clicca sopra per visualizzare le osservazioni e previsioni meteorologiche.

Per cambiare la mappa : fare clic sui pulsanti verdi con una croce nera per ingrandire, il pulsante verde con un trattino per diminuire, o sulla freccia verde per le mappe adiacenti.


METAR-TAF: